Ralston, Wyoming
Current Conditions -  °F | °C
As of 7:15 AM on Saturday 22 Nov 2014 (Local Time) from KPOY Reporting Station
Clear Clear  
Wind Chill: 31°   Ceiling: Unl
Heat Index: 41°   Visibility: 10mi
Dew Point: 27°   Wind: 22mph
Humidity: 57%   Direction: 260°W
Pressure: 29.54"   Gusts: 28mph
Location:  44.72°N, 108.87°W
Report Text: KPOY 221415Z AUTO 26019G24KT 10SM CLR 05/M03 A2954 RMK AO2
Loading
Personal Weather Stations






























Interactive Weather Map New forecast layout! Learn more

10-Day Weather Forecast

Advertisements
Track Severe Weather on mobile